Time;durP1;ratioP1;P1;durP2;ratioP2;P2;SDS_P1;SDS_P2;PMS_P1;PMS_P2;Temp;Humidity;BMP_temperature;BMP_pressure;BME280_temperature;BME280_humidity;BME280_pressure;Samples;Min_cycle;Max_cycle;Signal;HPM_P1;HPM_P2
2022/06/23 00:02:15;;;;;;;;;18.75;18.75;;;;;23.87;57.33;100499.63;5031197;28;45072;-73
2022/06/23 00:04:44;;;;;;;;;24.50;21.25;;;;;23.81;57.65;100487.06;5031026;28;44979;-74
2022/06/23 00:07:20;;;;;;;;;18.50;17.00;;;;;23.65;57.42;100475.72;5032106;28;45151;-73
2022/06/23 00:09:45;;;;;;;;;19.00;19.00;;;;;23.70;58.21;100497.41;5032521;28;45582;-74
2022/06/23 00:12:36;;;;;;;;;23.25;22.75;;;;;23.68;57.97;100491.13;5032766;28;45116;-73
2022/06/23 00:15:01;;;;;;;;;27.75;21.00;;;;;23.68;58.73;100491.13;5032223;28;45085;-73
2022/06/23 00:17:33;;;;;;;;;23.00;20.00;;;;;23.69;59.54;100496.53;5032550;28;45175;-74
2022/06/23 00:20:02;;;;;;;;;23.25;19.25;;;;;23.57;58.77;100468.75;5032727;28;45667;-73
2022/06/23 00:22:32;;;;;;;;;19.75;19.25;;;;;23.70;58.82;100490.13;5031176;28;44995;-73
2022/06/23 00:25:02;;;;;;;;;22.75;21.50;;;;;23.51;59.08;100457.09;5031884;28;45307;-73
2022/06/23 00:27:37;;;;;;;;;22.75;18.00;;;;;23.50;59.70;100454.41;5031988;28;45053;-73
2022/06/23 00:30:17;;;;;;;;;20.00;18.75;;;;;23.45;59.55;100461.84;5031987;28;46362;-74
2022/06/23 00:32:42;;;;;;;;;21.67;19.00;;;;;23.57;59.64;100485.13;5032215;28;45140;-72
2022/06/23 00:35:18;;;;;;;;;18.25;16.00;;;;;23.52;60.45;100483.41;5032191;28;45387;-73
2022/06/23 00:37:47;;;;;;;;;19.50;19.50;;;;;23.45;60.66;100472.75;5028369;28;45286;-73
2022/06/23 00:40:14;;;;;;;;;23.00;21.00;;;;;23.45;60.69;100484.56;5030374;28;45993;-73
2022/06/23 00:42:51;;;;;;;;;19.33;18.67;;;;;23.44;60.94;100482.75;5032407;28;44926;-72
2022/06/23 00:45:58;;;;;;;;;29.50;27.75;;;;;23.27;61.21;100490.56;5030511;28;45098;-74
2022/06/23 00:48:49;;;;;;;;;21.00;18.25;;;;;23.20;61.38;100473.53;5015929;28;45213;-74
2022/06/23 00:51:31;;;;;;;;;21.00;20.25;;;;;23.15;61.48;100481.81;5022128;28;45499;-73
2022/06/23 00:54:03;;;;;;;;;20.50;20.50;;;;;23.02;61.85;100463.16;5031915;28;45308;-74
2022/06/23 00:56:46;;;;;;;;;26.50;23.75;;;;;23.04;62.19;100463.97;5030235;28;45069;-73
2022/06/23 00:59:25;;;;;;;;;21.50;21.25;;;;;23.07;62.75;100467.53;5031409;28;44929;-73
2022/06/23 01:02:00;;;;;;;;;19.75;19.75;;;;;22.93;62.46;100448.84;5027229;28;45105;-73
2022/06/23 01:05:01;;;;;;;;;21.50;19.25;;;;;23.01;62.11;100462.22;5027348;28;45096;-74
2022/06/23 01:07:38;;;;;;;;;19.00;17.75;;;;;22.96;62.01;100462.34;5029730;28;45273;-74
2022/06/23 01:10:24;;;;;;;;;25.25;23.50;;;;;22.92;62.11;100457.06;5030955;28;45056;-74
2022/06/23 01:13:00;;;;;;;;;28.00;23.00;;;;;22.90;62.50;100454.38;5030725;28;45546;-74
2022/06/23 01:16:09;;;;;;;;;20.00;17.00;;;;;22.84;62.17;100454.56;5029255;28;45007;-73
2022/06/23 01:18:39;;;;;;;;;23.25;20.00;;;;;22.82;62.08;100461.91;4987244;28;45074;-73
2022/06/23 01:21:15;;;;;;;;;21.50;20.75;;;;;22.79;62.16;100451.97;4989000;28;45226;-73
2022/06/23 01:24:05;;;;;;;;;23.00;21.50;;;;;22.81;62.15;100455.53;5007881;28;46842;-74
2022/06/23 01:26:52;;;;;;;;;24.25;22.00;;;;;22.79;62.65;100461.97;5029595;28;45533;-74
2022/06/23 01:29:46;;;;;;;;;25.25;23.50;;;;;22.78;62.52;100455.63;5031456;28;44975;-74
2022/06/23 01:32:22;;;;;;;;;26.25;22.50;;;;;22.80;62.52;100461.03;5026478;28;45477;-74
2022/06/23 01:34:59;;;;;;;;;18.00;18.00;;;;;22.73;62.51;100464.88;5029107;28;45785;-74
2022/06/23 01:37:44;;;;;;;;;22.50;20.50;;;;;22.72;62.43;100457.63;5031966;28;44922;-73
2022/06/23 01:40:34;;;;;;;;;24.75;23.00;;;;;22.75;62.34;100457.53;5031171;28;45119;-74
2022/06/23 01:43:06;;;;;;;;;22.75;22.50;;;;;22.73;62.18;100449.41;5026495;28;45120;-74
2022/06/23 01:45:45;;;;;;;;;29.00;22.75;;;;;22.68;62.12;100445.03;5029116;28;45296;-74
2022/06/23 01:51:47;;;;;;;;;22.00;19.75;;;;;22.66;62.72;100449.66;5031531;28;45028;-74
2022/06/23 01:54:21;;;;;;;;;24.50;20.50;;;;;22.67;63.01;100446.88;5029616;28;45151;-74
2022/06/23 01:57:16;;;;;;;;;23.25;22.75;;;;;22.64;63.29;100441.53;5023913;28;46158;-75
2022/06/23 02:00:13;;;;;;;;;25.00;21.75;;;;;22.59;62.91;100438.94;5028771;28;45160;-74
2022/06/23 02:03:17;;;;;;;;;26.25;23.25;;;;;22.56;63.53;100447.19;5029733;28;45415;-74
2022/06/23 02:06:04;;;;;;;;;26.75;23.75;;;;;22.53;63.36;100449.09;5029821;28;45327;-74
2022/06/23 02:08:39;;;;;;;;;21.75;21.00;;;;;22.58;63.36;100447.13;5025433;28;46032;-74
2022/06/23 02:11:16;;;;;;;;;22.00;19.25;;;;;22.61;63.01;100444.31;5030410;28;45007;-74
2022/06/23 02:14:23;;;;;;;;;24.25;23.00;;;;;22.68;63.11;100439.59;5029119;28;45137;-74
2022/06/23 02:16:56;;;;;;;;;23.00;19.25;;;;;22.50;62.87;100402.91;5015164;28;45037;-75
2022/06/23 02:19:35;;;;;;;;;24.75;22.75;;;;;22.72;62.90;100441.28;5031368;28;45118;-74
2022/06/23 02:22:06;;;;;;;;;29.75;23.25;;;;;22.71;62.76;100436.78;5031356;28;45128;-75
2022/06/23 02:24:37;;;;;;;;;20.25;20.00;;;;;22.70;62.95;100432.28;5031117;28;45196;-75
2022/06/23 02:27:05;;;;;;;;;25.50;24.00;;;;;22.69;62.97;100438.69;5028800;28;46156;-74
2022/06/23 02:29:40;;;;;;;;;25.50;23.50;;;;;22.52;63.48;100414.63;5030720;28;46162;-74
2022/06/23 02:32:16;;;;;;;;;23.75;22.75;;;;;22.58;63.70;100438.97;5031313;28;45277;-74
2022/06/23 02:34:56;;;;;;;;;30.00;28.25;;;;;22.13;63.97;100363.97;5028725;28;44913;-74
2022/06/23 02:37:46;;;;;;;;;27.25;22.25;;;;;22.30;64.16;100393.47;5034159;28;45155;-75
2022/06/23 02:40:21;;;;;;;;;28.25;24.00;;;;;22.36;64.67;100420.50;5034079;28;45570;-74
2022/06/23 02:42:55;;;;;;;;;23.50;20.75;;;;;22.32;64.85;100407.03;5028041;28;44918;-74
2022/06/23 02:45:44;;;;;;;;;27.25;24.00;;;;;22.48;65.00;100441.06;5032386;28;45080;-74
2022/06/23 02:48:26;;;;;;;;;27.50;24.25;;;;;22.48;65.06;100435.59;5034207;28;45114;-74
2022/06/23 02:50:58;;;;;;;;;25.00;24.00;;;;;22.55;65.10;100433.59;5034833;28;45118;-74
2022/06/23 02:53:51;;;;;;;;;25.25;22.50;;;;;22.53;65.33;100424.59;5034384;28;45089;-74
2022/06/23 02:56:39;;;;;;;;;28.75;24.75;;;;;22.42;65.78;100403.09;5033701;28;45096;-74
2022/06/23 02:59:31;;;;;;;;;20.75;20.75;;;;;22.41;65.71;100404.06;5033593;28;44867;-74
2022/06/23 03:02:03;;;;;;;;;20.25;20.25;;;;;22.56;65.66;100421.78;5033334;28;45315;-74
2022/06/23 03:04:35;;;;;;;;;21.25;20.00;;;;;22.58;66.19;100428.97;5048255;28;45242;-74
2022/06/23 03:07:26;;;;;;;;;14.00;10.33;;;;;22.55;65.83;100431.75;5033667;28;45035;-74
2022/06/23 03:10:03;;;;;;;;;15.00;12.67;;;;;22.58;66.12;100441.69;5032136;28;45358;-75
2022/06/23 03:12:41;;;;;;;;;10.00;8.67;;;;;22.43;66.54;100416.66;5027173;28;45214;-74
2022/06/23 03:15:29;;;;;;;;;6.33;5.00;;;;;22.35;65.86;100410.53;5033203;28;44862;-74
2022/06/23 03:17:59;;;;;;;;;9.00;4.67;;;;;22.51;65.91;100440.97;5033459;28;45089;-74
2022/06/23 03:20:47;;;;;;;;;4.00;4.00;;;;;22.49;65.57;100451.00;5034063;28;44859;-74
2022/06/23 03:23:47;;;;;;;;;3.67;3.67;;;;;22.48;65.20;100451.06;5033109;28;45240;-75
2022/06/23 03:26:43;;;;;;;;;5.67;4.33;;;;;22.50;64.79;100449.19;5027085;28;45054;-75
2022/06/23 03:29:15;;;;;;;;;5.67;4.33;;;;;22.51;64.72;100454.59;5030287;28;45111;-75
2022/06/23 03:32:03;;;;;;;;;4.00;4.00;;;;;22.48;64.58;100464.66;5033087;28;45250;-75
2022/06/23 03:34:34;;;;;;;;;5.00;4.33;;;;;22.46;64.69;100464.72;5033256;28;45745;-74
2022/06/23 03:37:08;;;;;;;;;4.00;4.00;;;;;22.45;64.31;100455.66;5033600;28;44993;-74
2022/06/23 03:42:30;;;;;;;;;3.00;3.00;;;;;22.44;64.16;100461.16;5033803;28;45194;-74
2022/06/23 03:45:27;;;;;;;;;4.33;3.00;;;;;22.41;64.18;100469.38;5031575;28;45529;-73
2022/06/23 03:47:55;;;;;;;;;4.67;3.00;;;;;;;;5030160;28;45207;-74
2022/06/23 03:50:53;;;;;;;;;5.67;4.00;;;;;22.23;63.65;100451.69;5033451;28;45145;-75
2022/06/23 03:53:26;;;;;;;;;6.00;6.00;;;;;22.38;63.79;100485.81;5032730;28;45014;-74
2022/06/23 03:56:01;;;;;;;;;5.00;4.33;;;;;22.33;63.84;100485.91;5032249;28;46273;-74
2022/06/23 03:58:26;;;;;;;;;3.33;3.33;;;;;22.36;63.49;100494.00;5028237;28;45286;-74
2022/06/23 04:00:52;;;;;;;;;6.00;4.00;;;;;22.32;63.58;100494.13;5026546;28;45144;-75
2022/06/23 04:03:26;;;;;;;;;7.00;5.00;;;;;22.25;63.37;100505.13;5031795;28;45196;-74
2022/06/23 04:05:54;;;;;;;;;4.00;2.00;;;;;22.24;63.51;100507.88;5025638;28;45321;-74
2022/06/23 04:08:21;;;;;;;;;4.00;3.00;;;;;22.15;63.47;100503.56;5032758;28;45363;-74
2022/06/23 04:10:46;;;;;;;;;3.00;2.67;;;;;22.17;63.39;100506.25;5026187;28;45095;-75
2022/06/23 04:13:29;;;;;;;;;7.33;3.33;;;;;22.19;63.10;100521.63;5032679;28;45223;-74
2022/06/23 04:16:02;;;;;;;;;6.67;4.00;;;;;21.99;63.00;100489.50;5028271;28;45945;-74
2022/06/23 04:18:31;;;;;;;;;3.00;3.00;;;;;22.04;63.18;100516.56;5032538;28;45112;-74
2022/06/23 04:21:04;;;;;;;;;5.00;3.33;;;;;21.96;63.53;100524.00;5033070;28;45234;-74
2022/06/23 04:23:38;;;;;;;;;2.67;2.67;;;;;21.91;63.90;100529.59;5033464;28;45115;-74
2022/06/23 04:26:15;;;;;;;;;4.00;4.00;;;;;21.82;64.05;100536.13;5032750;28;45844;-75
2022/06/23 04:29:19;;;;;;;;;2.67;2.67;;;;;21.81;63.94;100523.47;5032413;28;45021;-75
2022/06/23 04:31:52;;;;;;;;;7.00;3.00;;;;;21.77;64.38;100531.72;4994498;28;45106;-74
2022/06/23 04:34:24;;;;;;;;;3.00;3.00;;;;;21.78;64.15;100528.06;5031152;28;45237;-74
2022/06/23 04:36:49;;;;;;;;;8.00;3.00;;;;;21.67;64.14;100506.56;5032884;28;45667;-74
2022/06/23 04:39:30;;;;;;;;;4.67;3.67;;;;;21.52;64.11;100480.63;5032415;28;45107;-74
2022/06/23 04:42:07;;;;;;;;;3.67;2.00;;;;;21.65;64.33;100503.00;5032367;28;45032;-74
2022/06/23 04:44:36;;;;;;;;;3.67;2.33;;;;;21.84;64.21;100534.25;5012002;28;45123;-73
2022/06/23 04:47:07;;;;;;;;;3.33;3.00;;;;;21.59;64.23;100492.25;5030075;28;45329;-75
2022/06/23 04:49:41;;;;;;;;;4.33;3.67;;;;;21.72;64.21;100534.53;5031643;28;44986;-75
2022/06/23 04:52:18;;;;;;;;;3.00;3.00;;;;;21.61;64.34;100514.88;5026580;28;46195;-74
2022/06/23 04:54:54;;;;;;;;;2.67;2.67;;;;;21.46;64.87;100500.66;5027852;28;45180;-74
2022/06/23 04:57:30;;;;;;;;;2.00;2.00;;;;;21.45;64.62;100501.59;5028818;28;45355;-74
2022/06/23 04:59:59;;;;;;;;;2.33;2.00;;;;;21.61;64.50;100540.22;5030841;28;45033;-72
2022/06/23 05:02:32;;;;;;;;;2.67;2.67;;;;;21.58;64.78;100531.25;5028457;28;45160;-72
2022/06/23 05:05:22;;;;;;;;;3.00;3.00;;;;;21.51;65.15;100536.84;5032377;28;45174;-73
2022/06/23 05:08:12;;;;;;;;;5.00;5.00;;;;;21.57;64.91;100538.50;5029350;28;45222;-73
2022/06/23 05:10:47;;;;;;;;;9.00;6.67;;;;;21.42;64.84;100492.63;5029851;28;44993;-75
2022/06/23 05:13:19;;;;;;;;;5.00;3.67;;;;;21.54;64.45;100523.16;5031778;28;45126;-74
2022/06/23 05:16:01;;;;;;;;;3.00;3.00;;;;;21.34;65.03;100492.78;5024812;28;45000;-73
2022/06/23 05:18:33;;;;;;;;;8.33;4.67;;;;;21.66;64.49;100541.03;5022663;28;45864;-74
2022/06/23 05:21:07;;;;;;;;;8.00;3.00;;;;;21.67;64.46;100534.66;5021941;28;45223;-74
2022/06/23 05:23:52;;;;;;;;;4.00;2.00;;;;;21.57;64.63;100521.31;5019177;28;45276;-75
2022/06/23 05:26:25;;;;;;;;;5.33;5.00;;;;;21.66;64.71;100521.09;5028361;28;45604;-73
2022/06/23 05:29:00;;;;;;;;;3.67;3.67;;;;;21.83;64.44;100543.34;5021708;28;45219;-74
2022/06/23 05:31:31;;;;;;;;;5.00;3.00;;;;;21.86;64.49;100551.44;5029949;28;44872;-74
2022/06/23 05:34:04;;;;;;;;;2.67;2.67;;;;;21.81;64.57;100547.94;5024589;28;45058;-74
2022/06/23 05:36:44;;;;;;;;;7.33;5.33;;;;;21.89;64.11;100564.06;5029239;28;44965;-73
2022/06/23 05:39:41;;;;;;;;;3.33;3.33;;;;;21.89;63.77;100558.63;5029550;28;46384;-73
2022/06/23 05:42:31;;;;;;;;;7.00;4.00;;;;;21.94;63.00;100550.34;5030404;28;45136;-72
2022/06/23 05:45:02;;;;;;;;;4.33;3.00;;;;;21.97;62.52;100542.13;5016143;28;45536;-73
2022/06/23 05:47:30;;;;;;;;;7.00;4.00;;;;;21.95;62.38;100544.88;5030888;28;45199;-74
2022/06/23 05:50:05;;;;;;;;;4.33;4.33;;;;;21.96;62.45;100541.25;5029449;28;46960;-73
2022/06/23 05:52:44;;;;;;;;;4.67;4.00;;;;;21.74;62.32;100491.88;5036580;28;45335;-73
2022/06/23 05:55:21;;;;;;;;;10.67;8.33;;;;;22.09;61.63;100552.69;5013439;28;46325;-73
2022/06/23 05:57:56;;;;;;;;;6.67;6.00;;;;;22.08;60.55;100548.22;5018960;28;45395;-75
2022/06/23 06:00:46;;;;;;;;;4.00;4.00;;;;;22.03;60.11;100542.88;5016952;28;45593;-74
2022/06/23 06:03:22;;;;;;;;;8.33;5.00;;;;;21.98;60.41;100542.09;5030766;28;45187;-75
2022/06/23 06:05:53;;;;;;;;;10.00;7.33;;;;;21.82;59.87;100516.19;5027302;28;45458;-73
2022/06/23 06:08:24;;;;;;;;;7.67;6.00;;;;;21.96;60.07;100529.44;5030695;28;45332;-74
2022/06/23 06:10:51;;;;;;;;;9.33;8.00;;;;;21.93;60.17;100522.28;5025002;28;45801;-74
2022/06/23 06:13:35;;;;;;;;;11.00;8.33;;;;;21.97;59.80;100523.97;5021293;28;45312;-74
2022/06/23 06:16:04;;;;;;;;;6.67;6.00;;;;;21.99;59.67;100511.25;5015464;28;45295;-74
2022/06/23 06:18:43;;;;;;;;;7.00;7.00;;;;;22.08;59.40;100530.03;5035534;28;45418;-74
2022/06/23 06:21:12;;;;;;;;;8.00;6.00;;;;;21.90;59.30;100497.88;5033492;28;45698;-75
2022/06/23 06:23:55;;;;;;;;;8.67;8.33;;;;;22.09;59.54;100530.94;5025773;28;45291;-75
2022/06/23 06:26:29;;;;;;;;;6.67;6.67;;;;;22.01;59.35;100524.78;5018036;28;45298;-74
2022/06/23 06:28:58;;;;;;;;;8.00;8.00;;;;;21.88;59.68;100499.72;5014458;28;45529;-75
2022/06/23 06:31:33;;;;;;;;;10.67;8.33;;;;;22.08;59.56;100546.38;5009241;28;45895;-75
2022/06/23 06:34:16;;;;;;;;;12.33;7.33;;;;;22.12;59.29;100536.31;5010235;28;45548;-76
2022/06/23 06:36:46;;;;;;;;;7.67;6.67;;;;;22.02;59.34;100512.97;5015618;28;45304;-76
2022/06/23 06:39:20;;;;;;;;;6.00;6.00;;;;;22.22;59.04;100526.09;5015543;28;45571;-76
2022/06/23 06:41:50;;;;;;;;;5.67;5.67;;;;;22.21;58.73;100514.31;5015549;28;46408;-75
2022/06/23 06:44:18;;;;;;;;;9.67;8.00;;;;;22.26;58.49;100530.53;5015704;28;45359;-74
2022/06/23 06:46:44;;;;;;;;;6.00;6.00;;;;;22.31;58.75;100533.19;5015519;28;45497;-75
2022/06/23 06:49:22;;;;;;;;;8.33;8.33;;;;;22.34;58.65;100536.72;5017452;28;45581;-75
2022/06/23 06:51:50;;;;;;;;;9.33;5.33;;;;;22.36;58.26;100532.09;5015111;28;45421;-76
2022/06/23 06:54:24;;;;;;;;;7.67;6.33;;;;;22.17;58.58;100498.97;5015470;28;45407;-76
2022/06/23 06:56:54;;;;;;;;;11.33;6.00;;;;;22.38;58.15;100527.50;5015693;28;45293;-76
2022/06/23 06:59:38;;;;;;;;;10.00;6.00;;;;;22.43;57.69;100536.44;5015207;28;45475;-76
2022/06/23 07:02:13;;;;;;;;;34.00;31.75;;;;;22.33;57.57;100506.81;5011212;28;45610;-76
2022/06/23 07:04:49;;;;;;;;;7.00;5.67;;;;;22.42;57.17;100520.16;5015967;28;45582;-75
2022/06/23 07:07:21;;;;;;;;;5.67;5.67;;;;;22.47;57.01;100520.03;5016129;28;45409;-74
2022/06/23 07:10:04;;;;;;;;;10.33;7.33;;;;;22.64;56.52;100547.72;5015706;28;45644;-75
2022/06/23 07:12:43;;;;;;;;;8.33;8.33;;;;;22.49;56.06;100510.91;5009133;28;47262;-74
2022/06/23 07:15:45;;;;;;;;;5.33;5.33;;;;;22.62;56.15;100490.59;5015067;28;45521;-74
2022/06/23 07:18:28;;;;;;;;;10.33;5.33;;;;;22.55;55.91;100477.16;5015080;28;45389;-74
2022/06/23 07:21:17;;;;;;;;;10.67;9.00;;;;;22.61;55.72;100480.63;5010118;28;45320;-74
2022/06/23 07:23:42;;;;;;;;;9.00;6.33;;;;;22.98;55.71;100544.97;5013020;28;45502;-74
2022/06/23 07:26:40;;;;;;;;;8.33;6.00;;;;;22.97;55.84;100542.28;5015022;28;45441;-74
2022/06/23 07:29:11;;;;;;;;;7.67;4.00;;;;;23.12;55.32;100546.44;4995757;28;45741;-74
2022/06/23 07:31:55;;;;;;;;;10.33;6.00;;;;;23.17;55.12;100549.91;5015325;28;45229;-74
2022/06/23 07:34:24;;;;;;;;;9.00;7.67;;;;;23.24;54.52;100539.72;5014877;28;45521;-75
2022/06/23 07:36:58;;;;;;;;;6.00;6.00;;;;;23.27;54.49;100554.16;5016971;28;45431;-73
2022/06/23 07:39:35;;;;;;;;;6.00;6.00;;;;;23.42;53.92;100560.09;5016270;28;45411;-73
2022/06/23 07:42:36;;;;;;;;;6.00;6.00;;;;;23.61;53.58;100555.88;5013732;28;45586;-73
2022/06/23 07:45:21;;;;;;;;;9.00;7.67;;;;;23.41;52.65;100501.03;5011445;28;46265;-74
2022/06/23 07:47:46;;;;;;;;;6.00;5.00;;;;;23.85;51.79;100556.97;5013559;28;45596;-74
2022/06/23 07:50:13;;;;;;;;;5.67;5.00;;;;;23.75;51.41;100530.88;5014435;28;45494;-74
2022/06/23 07:52:39;;;;;;;;;7.33;6.00;;;;;23.81;51.35;100537.97;5014729;28;45380;-74
2022/06/23 07:55:06;;;;;;;;;6.00;6.00;;;;;23.96;51.39;100550.28;5014620;28;46317;-73
2022/06/23 07:57:33;;;;;;;;;6.33;6.33;;;;;23.97;51.06;100558.41;5029263;28;45621;-73
2022/06/23 08:00:06;;;;;;;;;5.33;5.33;;;;;23.95;50.92;100543.03;5014161;28;45454;-74
2022/06/23 08:03:09;;;;;;;;;5.67;5.67;;;;;24.02;50.37;100545.53;5015508;28;45837;-73
2022/06/23 08:05:41;;;;;;;;;7.33;6.33;;;;;23.81;50.64;100507.97;5006447;28;45600;-74
2022/06/23 08:08:12;;;;;;;;;4.00;4.00;;;;;24.05;50.33;100544.53;5014415;28;45458;-74
2022/06/23 08:10:38;;;;;;;;;4.33;4.00;;;;;24.10;50.55;100546.16;5014420;28;45499;-74
2022/06/23 08:13:09;;;;;;;;;8.33;6.67;;;;;24.14;50.45;100556.97;5014358;28;45339;-73
2022/06/23 08:18:40;;;;;;;;;7.33;7.33;;;;;24.18;49.93;100534.09;5010858;28;45314;-74
2022/06/23 08:21:20;;;;;;;;;6.67;6.33;;;;;24.28;50.08;100541.03;5014373;28;45468;-75
2022/06/23 08:23:54;;;;;;;;;4.67;4.00;;;;;24.38;49.98;100555.25;5014376;28;45504;-73
2022/06/23 08:26:22;;;;;;;;;8.00;6.67;;;;;24.22;49.77;100519.38;5013539;28;45390;-73
2022/06/23 08:28:51;;;;;;;;;8.00;6.00;;;;;24.31;49.77;100519.09;5014343;28;45314;-74
2022/06/23 08:31:18;;;;;;;;;8.00;6.00;;;;;24.47;49.50;100539.44;5014075;28;45819;-73
2022/06/23 08:33:44;;;;;;;;;12.33;8.67;;;;;24.51;49.95;100533.88;5014182;28;45656;-73
2022/06/23 08:36:13;;;;;;;;;7.00;7.00;;;;;24.61;49.70;100547.19;5013765;28;46156;-73
2022/06/23 08:38:44;;;;;;;;;5.00;5.00;;;;;24.34;49.44;100488.94;5013785;28;45469;-73
2022/06/23 08:41:29;;;;;;;;;8.00;8.00;;;;;24.59;49.43;100518.16;5013892;28;45550;-73
2022/06/23 08:44:01;;;;;;;;;8.33;7.00;;;;;24.90;48.82;100552.59;5014015;28;45319;-72
2022/06/23 08:46:45;;;;;;;;;7.00;7.00;;;;;25.02;48.45;100552.13;5013963;28;45412;-73
2022/06/23 08:49:47;;;;;;;;;11.00;8.33;;;;;25.11;48.08;100553.59;5013758;28;45444;-72
2022/06/23 08:52:30;;;;;;;;;6.00;5.00;;;;;25.22;47.54;100542.28;5009214;28;45422;-72
2022/06/23 08:55:08;;;;;;;;;9.33;6.33;;;;;25.16;47.16;100536.09;5013537;28;45491;-73
2022/06/23 08:58:00;;;;;;;;;5.33;5.33;;;;;25.22;47.14;100548.63;5013187;28;46603;-74
2022/06/23 09:00:57;;;;;;;;;6.00;4.00;;;;;25.17;47.46;100539.72;5013447;28;45361;-73
2022/06/23 09:03:47;;;;;;;;;10.00;9.00;;;;;25.14;47.79;100548.91;5013705;28;45434;-73
2022/06/23 09:06:25;;;;;;;;;8.33;5.00;;;;;25.19;46.97;100552.41;5013996;28;45544;-73
2022/06/23 09:09:14;;;;;;;;;7.00;7.00;;;;;25.09;46.81;100509.94;5013585;28;46388;-72
2022/06/23 09:11:51;;;;;;;;;9.00;7.33;;;;;25.31;46.28;100541.97;5013454;28;45272;-73
2022/06/23 09:14:40;;;;;;;;;6.67;5.67;;;;;25.34;46.00;100539.09;5007797;28;45360;-72
2022/06/23 09:17:39;;;;;;;;;13.33;7.00;;;;;25.26;45.93;100513.88;5001856;28;45617;-73
2022/06/23 09:20:24;;;;;;;;;8.00;8.00;;;;;25.45;45.91;100542.31;5009802;28;48344;-72
2022/06/23 09:22:52;;;;;;;;;7.00;5.33;;;;;25.50;45.95;100545.78;5012975;28;45452;-72
2022/06/23 09:25:43;;;;;;;;;10.00;8.00;;;;;25.56;46.10;100542.81;5012958;28;45596;-72
2022/06/23 09:28:25;;;;;;;;;7.33;5.67;;;;;25.70;45.91;100546.84;5013369;28;45412;-71
2022/06/23 09:31:08;;;;;;;;;9.00;7.33;;;;;25.78;45.30;100530.13;5008099;28;46063;-72
2022/06/23 09:34:05;;;;;;;;;9.67;8.00;;;;;25.98;44.87;100545.75;5012341;28;45309;-73
2022/06/23 09:37:12;;;;;;;;;7.00;7.00;;;;;26.05;44.67;100530.84;5007381;28;45381;-73
2022/06/23 09:39:52;;;;;;;;;6.33;6.00;;;;;26.10;44.01;100537.94;5013125;28;45683;-72
2022/06/23 09:42:49;;;;;;;;;9.00;7.67;;;;;26.08;43.82;100533.47;5013316;28;46232;-72
2022/06/23 09:45:52;;;;;;;;;5.00;5.00;;;;;26.10;43.92;100529.72;5016117;28;45522;-74
2022/06/23 09:48:23;;;;;;;;;7.00;6.00;;;;;26.11;44.25;100534.22;5012985;28;45344;-72
2022/06/23 09:51:27;;;;;;;;;5.00;5.00;;;;;26.10;44.24;100528.81;5016963;28;45339;-73
2022/06/23 09:54:07;;;;;;;;;6.00;4.33;;;;;26.12;44.04;100532.41;5016061;28;46395;-73
2022/06/23 09:56:44;;;;;;;;;6.67;6.67;;;;;26.13;43.82;100528.69;5016393;28;45540;-72
2022/06/23 09:59:37;;;;;;;;;5.33;5.33;;;;;26.25;43.50;100533.66;5016563;28;45366;-72
2022/06/23 10:02:31;;;;;;;;;8.33;7.00;;;;;26.24;43.98;100531.88;5009961;28;45444;-71
2022/06/23 10:05:15;;;;;;;;;7.33;7.00;;;;;26.33;44.05;100533.31;5015686;28;46856;-72
2022/06/23 10:08:08;;;;;;;;;7.00;7.00;;;;;26.48;43.68;100531.75;5015961;28;45510;-73
2022/06/23 10:10:52;;;;;;;;;8.67;6.33;;;;;26.55;43.00;100529.69;5016422;28;45309;-73
2022/06/23 10:13:54;;;;;;;;;11.33;8.67;;;;;26.60;42.86;100530.38;5016436;28;45520;-72
2022/06/23 10:16:37;;;;;;;;;6.67;6.00;;;;;26.65;42.68;100536.56;5013947;28;45516;-74
2022/06/23 10:19:36;;;;;;;;;7.33;7.33;;;;;26.75;42.66;100529.72;5017106;28;45728;-72
2022/06/23 10:22:20;;;;;;;;;6.67;6.67;;;;;26.78;42.31;100526.84;4999219;28;45468;-72
2022/06/23 10:25:08;;;;;;;;;10.33;10.33;;;;;26.75;42.37;100523.34;5015877;28;45320;-73
2022/06/23 10:27:53;;;;;;;;;10.00;8.67;;;;;26.84;42.67;100523.84;5010844;28;46406;-73
2022/06/23 10:30:30;;;;;;;;;5.00;5.00;;;;;26.91;41.94;100527.19;5015743;28;45513;-74
2022/06/23 10:33:18;;;;;;;;;10.33;8.00;;;;;26.86;41.74;100529.25;5016031;28;45471;-73
2022/06/23 10:35:56;;;;;;;;;11.33;9.00;;;;;26.95;41.80;100525.19;5031418;28;45304;-72
2022/06/23 10:38:59;;;;;;;;;8.00;6.00;;;;;26.99;41.33;100516.75;5016378;28;46126;-72
2022/06/23 10:41:41;;;;;;;;;8.33;7.00;;;;;27.01;41.69;100514.84;5009815;28;45259;-73
2022/06/23 10:44:34;;;;;;;;;9.00;9.00;;;;;26.99;42.02;100510.38;5012499;28;45654;-73
2022/06/23 10:47:30;;;;;;;;;9.00;7.67;;;;;26.94;42.40;100502.38;5016157;28;45607;-75
2022/06/23 10:50:14;;;;;;;;;11.67;8.67;;;;;26.96;42.52;100505.94;5011958;28;46129;-73
2022/06/23 10:52:45;;;;;;;;;10.00;8.67;;;;;27.06;42.04;100508.22;5015302;28;45838;-75
2022/06/23 10:55:30;;;;;;;;;8.33;8.33;;;;;27.10;41.92;100507.16;5013989;28;45541;-74
2022/06/23 10:58:26;;;;;;;;;8.67;7.33;;;;;27.10;41.62;100505.28;5010460;28;45369;-73
2022/06/23 11:01:12;;;;;;;;;8.00;8.00;;;;;27.19;41.37;100504.88;5015073;28;45971;-73
2022/06/23 11:04:04;;;;;;;;;6.33;5.67;;;;;27.35;40.89;100507.78;5009731;28;45420;-74
2022/06/23 11:06:32;;;;;;;;;7.67;7.67;;;;;27.53;40.23;100503.28;5015075;28;45379;-73
2022/06/23 11:09:19;;;;;;;;;8.00;6.33;;;;;27.65;39.96;100503.66;5015587;28;45470;-73
2022/06/23 11:11:58;;;;;;;;;32.25;30.25;;;;;27.76;40.03;100498.53;5014876;28;45561;-72
2022/06/23 11:15:05;;;;;;;;;11.00;11.00;;;;;27.88;39.52;100500.69;5014831;28;45410;-76
2022/06/23 11:17:58;;;;;;;;;10.67;9.00;;;;;27.88;39.33;100495.19;4997545;28;46103;-73
2022/06/23 11:20:47;;;;;;;;;8.33;7.00;;;;;27.82;39.54;100491.84;5015058;28;45557;-72
2022/06/23 11:23:30;;;;;;;;;9.00;8.00;;;;;27.84;38.58;100490.81;5014433;28;45516;-73
2022/06/23 11:26:09;;;;;;;;;9.33;8.00;;;;;27.47;38.80;100418.53;5010171;28;45725;-74
2022/06/23 11:29:19;;;;;;;;;7.33;6.33;;;;;27.81;38.99;100485.47;5012676;28;45452;-74
2022/06/23 11:32:21;;;;;;;;;8.33;7.67;;;;;27.73;38.74;100469.34;5011099;28;45458;-73
2022/06/23 11:34:55;;;;;;;;;8.67;6.67;;;;;27.83;38.93;100480.78;5014793;28;45419;-74
2022/06/23 11:37:35;;;;;;;;;9.00;7.67;;;;;27.86;39.21;100482.50;5014719;28;45521;-72
2022/06/23 11:40:13;;;;;;;;;5.00;5.00;;;;;27.89;39.31;100485.97;5012839;28;45530;-73
2022/06/23 11:43:04;;;;;;;;;6.33;6.33;;;;;27.92;38.38;100472.09;5013260;28;45449;-73
2022/06/23 11:45:56;;;;;;;;;11.33;11.00;;;;;27.92;38.87;100460.22;5014916;28;45618;-73
2022/06/23 11:48:41;;;;;;;;;10.00;8.33;;;;;28.01;38.43;100475.38;5014289;28;45396;-72
2022/06/23 11:51:40;;;;;;;;;7.67;7.67;;;;;27.93;37.91;100460.19;5016882;28;45501;-74
2022/06/23 11:54:16;;;;;;;;;9.67;9.00;;;;;27.82;38.37;100456.13;5015024;28;45602;-73
2022/06/23 11:56:52;;;;;;;;;6.33;6.33;;;;;27.76;38.47;100460.97;5014130;28;45651;-72
2022/06/23 11:59:29;;;;;;;;;6.67;6.67;;;;;27.66;38.20;100450.56;5014284;28;45444;-73
2022/06/23 12:01:55;;;;;;;;;8.00;7.67;;;;;27.64;38.18;100449.75;5008673;28;45698;-73
2022/06/23 12:04:52;;;;;;;;;10.67;8.00;;;;;27.65;38.25;100451.50;5029787;28;45676;-73
2022/06/23 12:07:26;;;;;;;;;8.00;7.00;;;;;27.62;38.15;100440.66;5011490;28;45464;-73
2022/06/23 12:10:12;;;;;;;;;5.00;5.00;;;;;27.65;37.53;100449.63;5014218;28;45690;-73
2022/06/23 12:12:37;;;;;;;;;4.67;4.67;;;;;27.64;37.85;100450.63;5008300;28;45351;-74
2022/06/23 12:15:05;;;;;;;;;6.33;6.33;;;;;27.63;37.59;100446.09;5014105;28;45443;-75
2022/06/23 12:17:38;;;;;;;;;7.67;6.00;;;;;27.67;37.52;100431.25;5014279;28;45415;-72
2022/06/23 12:20:16;;;;;;;;;8.00;6.33;;;;;27.68;38.12;100421.16;5014079;28;45500;-72
2022/06/23 12:22:59;;;;;;;;;5.33;5.33;;;;;27.73;38.04;100436.41;5015003;28;45647;-75
2022/06/23 12:25:39;;;;;;;;;7.67;5.67;;;;;27.74;37.73;100421.75;5014546;28;45481;-73
2022/06/23 12:28:11;;;;;;;;;7.00;6.00;;;;;27.77;37.68;100428.94;5014153;28;46288;-73
2022/06/23 12:30:52;;;;;;;;;7.67;5.33;;;;;27.73;37.55;100424.56;5013868;28;45344;-74